Terminal Aerodrome Forecast
Issued by NWS

Home | Current Version | Previous Version | Text Only | Print | Product List | Glossary On
Versions: 1 2 3 4 5 6 7 8 9 10 11 12 13 14 15 16 17 18 19 20 21 22 23 24 25 26 27
000
FTUS42 KTAE 161700
TAFVLD
TAF
KVLD 161723Z 1618/1718 26007KT P6SM VCTS BKN030CB OVC060
      TEMPO 1620/1624 3SM +TSRA OVC025CB
     FM170000 25004KT 6SM -TSRA BKN025CB OVC100
     FM170500 00000KT P6SM OVC050
     FM170900 00000KT 2SM BR OVC005
     FM171500 04004KT P6SM BKN250=

USA.gov is the U.S. government's official web portal to all federal, state and local government web resources and services.